sensor_id;sensor_type;location;lat;lon;timestamp;P1;durP1;ratioP1;P2;durP2;ratioP2
44120;SDS011;29783;52.504;13.478;2024-03-22T00:01:48;14.20;;;12.55;;
44120;SDS011;29783;52.504;13.478;2024-03-22T00:04:15;14.80;;;12.65;;
44120;SDS011;29783;52.504;13.478;2024-03-22T00:06:41;16.27;;;12.15;;
44120;SDS011;29783;52.504;13.478;2024-03-22T00:09:07;15.27;;;13.38;;
44120;SDS011;29783;52.504;13.478;2024-03-22T00:11:33;15.48;;;13.25;;
44120;SDS011;29783;52.504;13.478;2024-03-22T00:13:59;18.92;;;13.80;;
44120;SDS011;29783;52.504;13.478;2024-03-22T00:16:24;17.05;;;14.00;;
44120;SDS011;29783;52.504;13.478;2024-03-22T00:18:50;15.75;;;13.55;;
44120;SDS011;29783;52.504;13.478;2024-03-22T00:21:15;15.30;;;12.57;;
44120;SDS011;29783;52.504;13.478;2024-03-22T00:23:42;15.18;;;13.15;;
44120;SDS011;29783;52.504;13.478;2024-03-22T00:26:08;14.50;;;12.75;;
44120;SDS011;29783;52.504;13.478;2024-03-22T00:28:34;17.75;;;14.07;;
44120;SDS011;29783;52.504;13.478;2024-03-22T00:31:00;22.58;;;14.75;;
44120;SDS011;29783;52.504;13.478;2024-03-22T00:33:25;16.13;;;12.93;;
44120;SDS011;29783;52.504;13.478;2024-03-22T00:35:51;14.90;;;12.23;;
44120;SDS011;29783;52.504;13.478;2024-03-22T00:38:16;15.10;;;13.52;;
44120;SDS011;29783;52.504;13.478;2024-03-22T00:40:42;16.23;;;13.93;;
44120;SDS011;29783;52.504;13.478;2024-03-22T00:43:08;15.13;;;13.63;;
44120;SDS011;29783;52.504;13.478;2024-03-22T00:45:34;15.00;;;13.20;;
44120;SDS011;29783;52.504;13.478;2024-03-22T00:47:59;16.50;;;14.35;;
44120;SDS011;29783;52.504;13.478;2024-03-22T00:50:25;17.65;;;14.50;;
44120;SDS011;29783;52.504;13.478;2024-03-22T00:52:51;20.42;;;14.18;;
44120;SDS011;29783;52.504;13.478;2024-03-22T00:55:17;19.55;;;14.77;;
44120;SDS011;29783;52.504;13.478;2024-03-22T00:57:43;15.63;;;13.85;;
44120;SDS011;29783;52.504;13.478;2024-03-22T01:00:09;16.30;;;14.30;;
44120;SDS011;29783;52.504;13.478;2024-03-22T01:02:35;18.17;;;14.70;;
44120;SDS011;29783;52.504;13.478;2024-03-22T01:05:00;20.00;;;14.98;;
44120;SDS011;29783;52.504;13.478;2024-03-22T01:07:26;19.10;;;14.70;;
44120;SDS011;29783;52.504;13.478;2024-03-22T01:09:52;16.77;;;14.82;;
44120;SDS011;29783;52.504;13.478;2024-03-22T01:12:17;19.17;;;15.00;;
44120;SDS011;29783;52.504;13.478;2024-03-22T01:14:43;18.05;;;15.82;;
44120;SDS011;29783;52.504;13.478;2024-03-22T01:17:08;17.92;;;15.30;;
44120;SDS011;29783;52.504;13.478;2024-03-22T01:19:34;18.38;;;15.63;;
44120;SDS011;29783;52.504;13.478;2024-03-22T01:21:59;19.23;;;16.00;;
44120;SDS011;29783;52.504;13.478;2024-03-22T01:24:25;19.58;;;16.55;;
44120;SDS011;29783;52.504;13.478;2024-03-22T01:26:51;17.80;;;15.93;;
44120;SDS011;29783;52.504;13.478;2024-03-22T01:29:16;23.45;;;17.08;;
44120;SDS011;29783;52.504;13.478;2024-03-22T01:31:42;21.80;;;19.00;;
44120;SDS011;29783;52.504;13.478;2024-03-22T01:34:07;21.55;;;19.13;;
44120;SDS011;29783;52.504;13.478;2024-03-22T01:36:33;23.63;;;18.98;;
44120;SDS011;29783;52.504;13.478;2024-03-22T01:38:59;22.58;;;19.35;;
44120;SDS011;29783;52.504;13.478;2024-03-22T01:41:24;23.50;;;19.67;;
44120;SDS011;29783;52.504;13.478;2024-03-22T01:43:50;24.77;;;19.88;;
44120;SDS011;29783;52.504;13.478;2024-03-22T01:46:15;23.40;;;18.85;;
44120;SDS011;29783;52.504;13.478;2024-03-22T01:48:41;24.15;;;19.55;;
44120;SDS011;29783;52.504;13.478;2024-03-22T01:51:07;23.83;;;19.15;;
44120;SDS011;29783;52.504;13.478;2024-03-22T01:53:34;24.48;;;19.92;;
44120;SDS011;29783;52.504;13.478;2024-03-22T01:56:02;25.08;;;20.75;;
44120;SDS011;29783;52.504;13.478;2024-03-22T01:58:28;25.80;;;20.33;;
44120;SDS011;29783;52.504;13.478;2024-03-22T02:00:54;27.80;;;21.98;;
44120;SDS011;29783;52.504;13.478;2024-03-22T02:03:19;25.80;;;19.83;;
44120;SDS011;29783;52.504;13.478;2024-03-22T02:05:45;24.17;;;20.17;;
44120;SDS011;29783;52.504;13.478;2024-03-22T02:08:11;25.58;;;20.70;;
44120;SDS011;29783;52.504;13.478;2024-03-22T02:10:36;25.30;;;20.35;;
44120;SDS011;29783;52.504;13.478;2024-03-22T02:13:02;24.60;;;21.63;;
44120;SDS011;29783;52.504;13.478;2024-03-22T02:15:28;24.65;;;20.52;;
44120;SDS011;29783;52.504;13.478;2024-03-22T02:17:53;23.27;;;19.08;;
44120;SDS011;29783;52.504;13.478;2024-03-22T02:20:19;27.83;;;20.63;;
44120;SDS011;29783;52.504;13.478;2024-03-22T02:22:44;26.27;;;19.85;;
44120;SDS011;29783;52.504;13.478;2024-03-22T02:25:10;24.25;;;20.25;;
44120;SDS011;29783;52.504;13.478;2024-03-22T02:27:35;26.27;;;20.77;;
44120;SDS011;29783;52.504;13.478;2024-03-22T02:30:03;25.10;;;21.40;;
44120;SDS011;29783;52.504;13.478;2024-03-22T02:32:29;26.65;;;20.63;;
44120;SDS011;29783;52.504;13.478;2024-03-22T02:34:55;27.52;;;22.17;;
44120;SDS011;29783;52.504;13.478;2024-03-22T02:37:20;26.83;;;21.30;;
44120;SDS011;29783;52.504;13.478;2024-03-22T02:39:46;22.00;;;19.50;;
44120;SDS011;29783;52.504;13.478;2024-03-22T02:42:11;25.30;;;20.17;;
44120;SDS011;29783;52.504;13.478;2024-03-22T02:44:37;27.38;;;20.42;;
44120;SDS011;29783;52.504;13.478;2024-03-22T02:47:07;23.52;;;19.98;;
44120;SDS011;29783;52.504;13.478;2024-03-22T02:49:37;28.60;;;20.50;;
44120;SDS011;29783;52.504;13.478;2024-03-22T02:52:03;29.60;;;22.27;;
44120;SDS011;29783;52.504;13.478;2024-03-22T02:54:29;29.10;;;21.80;;
44120;SDS011;29783;52.504;13.478;2024-03-22T02:56:55;30.48;;;22.00;;
44120;SDS011;29783;52.504;13.478;2024-03-22T02:59:21;28.65;;;19.27;;
44120;SDS011;29783;52.504;13.478;2024-03-22T03:01:46;25.58;;;17.77;;
44120;SDS011;29783;52.504;13.478;2024-03-22T03:04:12;24.10;;;19.50;;
44120;SDS011;29783;52.504;13.478;2024-03-22T03:06:38;28.83;;;19.10;;
44120;SDS011;29783;52.504;13.478;2024-03-22T03:09:03;26.70;;;20.02;;
44120;SDS011;29783;52.504;13.478;2024-03-22T03:11:33;24.13;;;19.17;;
44120;SDS011;29783;52.504;13.478;2024-03-22T03:13:58;26.60;;;18.60;;
44120;SDS011;29783;52.504;13.478;2024-03-22T03:16:24;24.02;;;18.95;;
44120;SDS011;29783;52.504;13.478;2024-03-22T03:18:50;27.45;;;21.10;;
44120;SDS011;29783;52.504;13.478;2024-03-22T03:21:15;25.90;;;19.23;;
44120;SDS011;29783;52.504;13.478;2024-03-22T03:23:41;27.73;;;20.30;;
44120;SDS011;29783;52.504;13.478;2024-03-22T03:26:07;23.65;;;18.63;;
44120;SDS011;29783;52.504;13.478;2024-03-22T03:28:32;23.45;;;19.17;;
44120;SDS011;29783;52.504;13.478;2024-03-22T03:30:58;23.80;;;19.38;;
44120;SDS011;29783;52.504;13.478;2024-03-22T03:33:23;22.48;;;17.33;;
44120;SDS011;29783;52.504;13.478;2024-03-22T03:35:49;26.33;;;18.25;;
44120;SDS011;29783;52.504;13.478;2024-03-22T03:38:15;23.92;;;18.38;;
44120;SDS011;29783;52.504;13.478;2024-03-22T03:40:41;26.80;;;18.85;;
44120;SDS011;29783;52.504;13.478;2024-03-22T03:43:07;29.05;;;19.02;;
44120;SDS011;29783;52.504;13.478;2024-03-22T03:45:32;25.73;;;19.45;;
44120;SDS011;29783;52.504;13.478;2024-03-22T03:48:00;23.13;;;18.25;;
44120;SDS011;29783;52.504;13.478;2024-03-22T03:50:27;23.10;;;19.48;;
44120;SDS011;29783;52.504;13.478;2024-03-22T03:52:52;25.23;;;18.90;;
44120;SDS011;29783;52.504;13.478;2024-03-22T03:55:18;32.08;;;17.38;;
44120;SDS011;29783;52.504;13.478;2024-03-22T03:57:43;21.25;;;18.27;;
44120;SDS011;29783;52.504;13.478;2024-03-22T04:00:09;29.40;;;19.00;;
44120;SDS011;29783;52.504;13.478;2024-03-22T04:02:35;28.50;;;18.63;;
44120;SDS011;29783;52.504;13.478;2024-03-22T04:05:00;25.33;;;18.15;;
44120;SDS011;29783;52.504;13.478;2024-03-22T04:07:26;21.48;;;17.85;;
44120;SDS011;29783;52.504;13.478;2024-03-22T04:09:52;26.67;;;18.90;;
44120;SDS011;29783;52.504;13.478;2024-03-22T04:12:17;23.73;;;18.17;;
44120;SDS011;29783;52.504;13.478;2024-03-22T04:14:43;30.33;;;17.65;;
44120;SDS011;29783;52.504;13.478;2024-03-22T04:17:09;22.83;;;16.70;;
44120;SDS011;29783;52.504;13.478;2024-03-22T04:19:34;23.90;;;18.30;;
44120;SDS011;29783;52.504;13.478;2024-03-22T04:22:00;23.27;;;16.92;;
44120;SDS011;29783;52.504;13.478;2024-03-22T04:24:25;21.27;;;16.42;;
44120;SDS011;29783;52.504;13.478;2024-03-22T04:26:51;23.75;;;17.27;;
44120;SDS011;29783;52.504;13.478;2024-03-22T04:29:17;22.65;;;18.25;;
44120;SDS011;29783;52.504;13.478;2024-03-22T04:31:42;23.48;;;17.92;;
44120;SDS011;29783;52.504;13.478;2024-03-22T04:34:08;30.65;;;18.38;;
44120;SDS011;29783;52.504;13.478;2024-03-22T04:36:33;22.15;;;17.48;;
44120;SDS011;29783;52.504;13.478;2024-03-22T04:38:59;24.55;;;18.10;;
44120;SDS011;29783;52.504;13.478;2024-03-22T04:41:25;23.13;;;17.90;;
44120;SDS011;29783;52.504;13.478;2024-03-22T04:43:50;25.02;;;17.27;;
44120;SDS011;29783;52.504;13.478;2024-03-22T04:46:16;25.45;;;17.05;;
44120;SDS011;29783;52.504;13.478;2024-03-22T04:48:42;19.02;;;16.60;;
44120;SDS011;29783;52.504;13.478;2024-03-22T04:51:07;30.30;;;17.38;;
44120;SDS011;29783;52.504;13.478;2024-03-22T04:53:33;22.00;;;16.05;;
44120;SDS011;29783;52.504;13.478;2024-03-22T04:55:58;24.63;;;18.23;;
44120;SDS011;29783;52.504;13.478;2024-03-22T04:58:24;21.85;;;17.10;;
44120;SDS011;29783;52.504;13.478;2024-03-22T05:00:55;21.90;;;16.95;;
44120;SDS011;29783;52.504;13.478;2024-03-22T05:03:22;26.00;;;18.00;;
44120;SDS011;29783;52.504;13.478;2024-03-22T05:05:49;21.45;;;16.33;;
44120;SDS011;29783;52.504;13.478;2024-03-22T05:08:15;25.15;;;17.52;;
44120;SDS011;29783;52.504;13.478;2024-03-22T05:10:42;27.35;;;17.45;;
44120;SDS011;29783;52.504;13.478;2024-03-22T05:13:07;25.77;;;15.75;;
44120;SDS011;29783;52.504;13.478;2024-03-22T05:15:33;25.30;;;17.17;;
44120;SDS011;29783;52.504;13.478;2024-03-22T05:17:58;24.00;;;17.70;;
44120;SDS011;29783;52.504;13.478;2024-03-22T05:20:24;27.13;;;18.50;;
44120;SDS011;29783;52.504;13.478;2024-03-22T05:22:50;24.35;;;17.48;;
44120;SDS011;29783;52.504;13.478;2024-03-22T05:25:17;27.80;;;19.42;;
44120;SDS011;29783;52.504;13.478;2024-03-22T05:27:44;30.25;;;16.98;;
44120;SDS011;29783;52.504;13.478;2024-03-22T05:30:10;25.58;;;18.13;;
44120;SDS011;29783;52.504;13.478;2024-03-22T05:32:37;22.15;;;17.30;;
44120;SDS011;29783;52.504;13.478;2024-03-22T05:35:03;33.47;;;17.40;;
44120;SDS011;29783;52.504;13.478;2024-03-22T05:37:30;28.27;;;17.73;;
44120;SDS011;29783;52.504;13.478;2024-03-22T05:39:56;26.98;;;18.52;;
44120;SDS011;29783;52.504;13.478;2024-03-22T05:42:21;26.08;;;17.58;;
44120;SDS011;29783;52.504;13.478;2024-03-22T05:44:47;22.90;;;17.25;;
44120;SDS011;29783;52.504;13.478;2024-03-22T05:47:13;29.73;;;18.20;;
44120;SDS011;29783;52.504;13.478;2024-03-22T05:49:39;27.67;;;17.40;;
44120;SDS011;29783;52.504;13.478;2024-03-22T05:52:04;29.58;;;17.92;;
44120;SDS011;29783;52.504;13.478;2024-03-22T05:54:30;27.63;;;17.38;;
44120;SDS011;29783;52.504;13.478;2024-03-22T05:56:56;21.58;;;16.15;;
44120;SDS011;29783;52.504;13.478;2024-03-22T05:59:21;25.20;;;19.02;;
44120;SDS011;29783;52.504;13.478;2024-03-22T06:01:47;26.45;;;16.30;;
44120;SDS011;29783;52.504;13.478;2024-03-22T06:04:13;26.05;;;16.20;;
44120;SDS011;29783;52.504;13.478;2024-03-22T06:06:38;24.50;;;17.17;;
44120;SDS011;29783;52.504;13.478;2024-03-22T06:09:04;22.10;;;14.88;;
44120;SDS011;29783;52.504;13.478;2024-03-22T06:11:34;20.70;;;14.73;;
44120;SDS011;29783;52.504;13.478;2024-03-22T06:13:59;19.48;;;15.23;;
44120;SDS011;29783;52.504;13.478;2024-03-22T06:16:25;27.05;;;16.10;;
44120;SDS011;29783;52.504;13.478;2024-03-22T06:18:50;22.30;;;16.95;;
44120;SDS011;29783;52.504;13.478;2024-03-22T06:21:16;22.95;;;14.85;;
44120;SDS011;29783;52.504;13.478;2024-03-22T06:23:48;24.95;;;15.23;;
44120;SDS011;29783;52.504;13.478;2024-03-22T06:26:15;21.10;;;15.18;;
44120;SDS011;29783;52.504;13.478;2024-03-22T06:28:40;21.42;;;13.20;;
44120;SDS011;29783;52.504;13.478;2024-03-22T06:31:06;26.70;;;14.00;;
44120;SDS011;29783;52.504;13.478;2024-03-22T06:33:31;21.63;;;13.68;;
44120;SDS011;29783;52.504;13.478;2024-03-22T06:35:57;19.80;;;13.48;;
44120;SDS011;29783;52.504;13.478;2024-03-22T06:38:23;21.05;;;13.43;;
44120;SDS011;29783;52.504;13.478;2024-03-22T06:40:48;22.27;;;15.55;;
44120;SDS011;29783;52.504;13.478;2024-03-22T06:43:14;25.33;;;14.13;;
44120;SDS011;29783;52.504;13.478;2024-03-22T06:45:39;19.38;;;15.15;;
44120;SDS011;29783;52.504;13.478;2024-03-22T06:48:05;24.35;;;16.33;;
44120;SDS011;29783;52.504;13.478;2024-03-22T06:50:31;19.73;;;14.02;;
44120;SDS011;29783;52.504;13.478;2024-03-22T06:52:56;19.83;;;13.80;;
44120;SDS011;29783;52.504;13.478;2024-03-22T06:55:22;21.38;;;14.82;;
44120;SDS011;29783;52.504;13.478;2024-03-22T06:57:48;22.92;;;15.73;;
44120;SDS011;29783;52.504;13.478;2024-03-22T07:00:15;22.33;;;15.27;;
44120;SDS011;29783;52.504;13.478;2024-03-22T07:02:41;24.13;;;14.55;;
44120;SDS011;29783;52.504;13.478;2024-03-22T07:05:07;18.65;;;14.13;;
44120;SDS011;29783;52.504;13.478;2024-03-22T07:07:34;23.15;;;14.35;;
44120;SDS011;29783;52.504;13.478;2024-03-22T07:10:01;27.13;;;16.02;;
44120;SDS011;29783;52.504;13.478;2024-03-22T07:12:27;22.42;;;16.13;;
44120;SDS011;29783;52.504;13.478;2024-03-22T07:14:53;23.70;;;16.45;;
44120;SDS011;29783;52.504;13.478;2024-03-22T07:17:18;20.25;;;15.07;;
44120;SDS011;29783;52.504;13.478;2024-03-22T07:19:49;24.58;;;17.38;;
44120;SDS011;29783;52.504;13.478;2024-03-22T07:22:19;27.27;;;17.75;;
44120;SDS011;29783;52.504;13.478;2024-03-22T07:24:45;21.42;;;18.08;;
44120;SDS011;29783;52.504;13.478;2024-03-22T07:27:12;25.33;;;18.23;;
44120;SDS011;29783;52.504;13.478;2024-03-22T07:29:39;28.50;;;19.13;;
44120;SDS011;29783;52.504;13.478;2024-03-22T07:32:05;19.90;;;14.80;;
44120;SDS011;29783;52.504;13.478;2024-03-22T07:34:30;24.42;;;18.77;;
44120;SDS011;29783;52.504;13.478;2024-03-22T07:36:56;24.77;;;19.45;;
44120;SDS011;29783;52.504;13.478;2024-03-22T07:39:22;28.77;;;19.70;;
44120;SDS011;29783;52.504;13.478;2024-03-22T07:41:48;27.13;;;19.38;;
44120;SDS011;29783;52.504;13.478;2024-03-22T07:44:14;33.83;;;21.02;;
44120;SDS011;29783;52.504;13.478;2024-03-22T07:46:42;29.52;;;19.83;;
44120;SDS011;29783;52.504;13.478;2024-03-22T07:49:14;31.88;;;20.88;;
44120;SDS011;29783;52.504;13.478;2024-03-22T07:51:40;30.20;;;20.40;;
44120;SDS011;29783;52.504;13.478;2024-03-22T07:54:05;26.90;;;19.63;;
44120;SDS011;29783;52.504;13.478;2024-03-22T07:56:31;29.98;;;19.90;;
44120;SDS011;29783;52.504;13.478;2024-03-22T07:58:57;29.75;;;19.30;;
44120;SDS011;29783;52.504;13.478;2024-03-22T08:01:23;32.97;;;21.67;;
44120;SDS011;29783;52.504;13.478;2024-03-22T08:03:49;34.38;;;19.73;;
44120;SDS011;29783;52.504;13.478;2024-03-22T08:06:15;32.85;;;21.45;;
44120;SDS011;29783;52.504;13.478;2024-03-22T08:08:41;29.23;;;21.33;;
44120;SDS011;29783;52.504;13.478;2024-03-22T08:11:06;28.17;;;20.55;;
44120;SDS011;29783;52.504;13.478;2024-03-22T08:13:32;33.38;;;21.77;;
44120;SDS011;29783;52.504;13.478;2024-03-22T08:15:58;26.27;;;19.88;;
44120;SDS011;29783;52.504;13.478;2024-03-22T08:18:23;32.92;;;22.15;;
44120;SDS011;29783;52.504;13.478;2024-03-22T08:20:49;27.48;;;20.67;;
44120;SDS011;29783;52.504;13.478;2024-03-22T08:23:14;27.38;;;21.40;;
44120;SDS011;29783;52.504;13.478;2024-03-22T08:25:42;28.13;;;19.50;;
44120;SDS011;29783;52.504;13.478;2024-03-22T08:28:08;25.52;;;19.85;;
44120;SDS011;29783;52.504;13.478;2024-03-22T08:30:36;26.65;;;20.48;;
44120;SDS011;29783;52.504;13.478;2024-03-22T08:33:02;35.05;;;22.27;;
44120;SDS011;29783;52.504;13.478;2024-03-22T08:35:29;37.95;;;21.95;;
44120;SDS011;29783;52.504;13.478;2024-03-22T08:37:55;39.17;;;22.65;;
44120;SDS011;29783;52.504;13.478;2024-03-22T08:40:21;29.10;;;21.95;;
44120;SDS011;29783;52.504;13.478;2024-03-22T08:42:48;35.88;;;22.27;;
44120;SDS011;29783;52.504;13.478;2024-03-22T08:45:13;39.95;;;22.35;;
44120;SDS011;29783;52.504;13.478;2024-03-22T08:47:39;31.85;;;21.75;;
44120;SDS011;29783;52.504;13.478;2024-03-22T08:50:06;27.85;;;21.38;;
44120;SDS011;29783;52.504;13.478;2024-03-22T08:52:32;33.63;;;20.75;;
44120;SDS011;29783;52.504;13.478;2024-03-22T08:54:59;29.20;;;21.27;;
44120;SDS011;29783;52.504;13.478;2024-03-22T08:57:24;29.77;;;19.95;;
44120;SDS011;29783;52.504;13.478;2024-03-22T08:59:50;29.33;;;20.60;;
44120;SDS011;29783;52.504;13.478;2024-03-22T09:02:16;32.42;;;22.23;;
44120;SDS011;29783;52.504;13.478;2024-03-22T09:04:41;32.25;;;19.40;;
44120;SDS011;29783;52.504;13.478;2024-03-22T09:07:07;27.58;;;19.67;;
44120;SDS011;29783;52.504;13.478;2024-03-22T09:09:33;27.88;;;20.35;;
44120;SDS011;29783;52.504;13.478;2024-03-22T09:11:58;28.17;;;21.20;;
44120;SDS011;29783;52.504;13.478;2024-03-22T09:14:24;38.38;;;21.10;;
44120;SDS011;29783;52.504;13.478;2024-03-22T09:16:50;29.63;;;20.85;;
44120;SDS011;29783;52.504;13.478;2024-03-22T09:19:16;32.00;;;18.55;;
44120;SDS011;29783;52.504;13.478;2024-03-22T09:21:42;33.90;;;20.63;;
44120;SDS011;29783;52.504;13.478;2024-03-22T09:24:07;27.65;;;19.77;;
44120;SDS011;29783;52.504;13.478;2024-03-22T09:26:33;30.25;;;19.77;;
44120;SDS011;29783;52.504;13.478;2024-03-22T09:28:59;30.25;;;20.40;;
44120;SDS011;29783;52.504;13.478;2024-03-22T09:31:24;28.10;;;19.33;;
44120;SDS011;29783;52.504;13.478;2024-03-22T09:33:50;32.40;;;20.27;;
44120;SDS011;29783;52.504;13.478;2024-03-22T09:36:16;26.38;;;17.52;;
44120;SDS011;29783;52.504;13.478;2024-03-22T09:38:41;38.25;;;20.05;;
44120;SDS011;29783;52.504;13.478;2024-03-22T09:41:07;49.53;;;19.50;;
44120;SDS011;29783;52.504;13.478;2024-03-22T09:43:33;32.55;;;19.10;;
44120;SDS011;29783;52.504;13.478;2024-03-22T09:45:59;27.60;;;18.75;;
44120;SDS011;29783;52.504;13.478;2024-03-22T09:48:26;34.17;;;19.90;;
44120;SDS011;29783;52.504;13.478;2024-03-22T09:50:53;25.90;;;18.73;;
44120;SDS011;29783;52.504;13.478;2024-03-22T09:53:20;29.92;;;19.52;;
44120;SDS011;29783;52.504;13.478;2024-03-22T09:55:47;24.98;;;18.33;;
44120;SDS011;29783;52.504;13.478;2024-03-22T09:58:14;27.50;;;19.35;;
44120;SDS011;29783;52.504;13.478;2024-03-22T10:00:41;31.27;;;16.30;;
44120;SDS011;29783;52.504;13.478;2024-03-22T10:03:07;27.35;;;18.65;;
44120;SDS011;29783;52.504;13.478;2024-03-22T10:05:34;28.63;;;20.02;;
44120;SDS011;29783;52.504;13.478;2024-03-22T10:08:00;28.77;;;19.60;;
44120;SDS011;29783;52.504;13.478;2024-03-22T10:10:26;28.70;;;18.15;;
44120;SDS011;29783;52.504;13.478;2024-03-22T10:12:52;34.95;;;17.75;;
44120;SDS011;29783;52.504;13.478;2024-03-22T10:15:21;26.42;;;16.67;;
44120;SDS011;29783;52.504;13.478;2024-03-22T10:17:49;23.67;;;17.85;;
44120;SDS011;29783;52.504;13.478;2024-03-22T10:20:14;25.92;;;16.10;;
44120;SDS011;29783;52.504;13.478;2024-03-22T10:22:47;23.45;;;16.30;;
44120;SDS011;29783;52.504;13.478;2024-03-22T10:25:14;24.92;;;16.60;;
44120;SDS011;29783;52.504;13.478;2024-03-22T10:27:39;21.98;;;15.80;;
44120;SDS011;29783;52.504;13.478;2024-03-22T10:30:09;25.42;;;15.90;;
44120;SDS011;29783;52.504;13.478;2024-03-22T10:32:36;23.30;;;16.20;;
44120;SDS011;29783;52.504;13.478;2024-03-22T10:35:04;21.42;;;15.90;;
44120;SDS011;29783;52.504;13.478;2024-03-22T10:37:35;25.02;;;15.45;;
44120;SDS011;29783;52.504;13.478;2024-03-22T10:40:01;20.50;;;15.95;;
44120;SDS011;29783;52.504;13.478;2024-03-22T10:42:34;20.43;;;15.67;;
44120;SDS011;29783;52.504;13.478;2024-03-22T10:45:01;24.92;;;15.75;;
44120;SDS011;29783;52.504;13.478;2024-03-22T10:47:30;21.67;;;16.02;;
44120;SDS011;29783;52.504;13.478;2024-03-22T10:50:07;19.88;;;14.10;;
44120;SDS011;29783;52.504;13.478;2024-03-22T10:55:08;23.80;;;13.52;;
44120;SDS011;29783;52.504;13.478;2024-03-22T10:57:38;21.40;;;15.70;;
44120;SDS011;29783;52.504;13.478;2024-03-22T11:00:08;20.77;;;16.02;;
44120;SDS011;29783;52.504;13.478;2024-03-22T11:02:37;24.30;;;17.30;;
44120;SDS011;29783;52.504;13.478;2024-03-22T11:05:03;21.20;;;15.55;;
44120;SDS011;29783;52.504;13.478;2024-03-22T11:07:30;21.35;;;15.27;;
44120;SDS011;29783;52.504;13.478;2024-03-22T11:09:56;27.55;;;15.50;;
44120;SDS011;29783;52.504;13.478;2024-03-22T11:12:26;21.38;;;14.75;;
44120;SDS011;29783;52.504;13.478;2024-03-22T11:14:53;19.02;;;14.82;;
44120;SDS011;29783;52.504;13.478;2024-03-22T11:17:20;21.55;;;15.77;;
44120;SDS011;29783;52.504;13.478;2024-03-22T11:19:49;22.60;;;14.57;;
44120;SDS011;29783;52.504;13.478;2024-03-22T11:22:16;24.25;;;15.68;;
44120;SDS011;29783;52.504;13.478;2024-03-22T11:24:42;21.63;;;14.82;;
44120;SDS011;29783;52.504;13.478;2024-03-22T11:27:09;23.73;;;13.88;;
44120;SDS011;29783;52.504;13.478;2024-03-22T11:29:36;25.58;;;15.45;;
44120;SDS011;29783;52.504;13.478;2024-03-22T11:32:05;20.38;;;14.20;;
44120;SDS011;29783;52.504;13.478;2024-03-22T11:34:34;21.30;;;15.18;;
44120;SDS011;29783;52.504;13.478;2024-03-22T11:37:03;17.98;;;13.57;;
44120;SDS011;29783;52.504;13.478;2024-03-22T11:39:32;20.40;;;13.48;;
44120;SDS011;29783;52.504;13.478;2024-03-22T11:41:59;24.27;;;15.35;;
44120;SDS011;29783;52.504;13.478;2024-03-22T11:44:26;21.90;;;14.30;;
44120;SDS011;29783;52.504;13.478;2024-03-22T11:46:53;21.58;;;14.55;;
44120;SDS011;29783;52.504;13.478;2024-03-22T11:49:18;28.50;;;15.43;;
44120;SDS011;29783;52.504;13.478;2024-03-22T11:51:44;21.98;;;14.63;;
44120;SDS011;29783;52.504;13.478;2024-03-22T11:54:10;23.92;;;13.88;;
44120;SDS011;29783;52.504;13.478;2024-03-22T11:56:36;20.77;;;13.85;;
44120;SDS011;29783;52.504;13.478;2024-03-22T11:59:02;20.90;;;15.30;;
44120;SDS011;29783;52.504;13.478;2024-03-22T12:01:31;21.13;;;16.15;;
44120;SDS011;29783;52.504;13.478;2024-03-22T12:03:57;27.55;;;15.38;;
44120;SDS011;29783;52.504;13.478;2024-03-22T12:06:24;24.25;;;16.27;;
44120;SDS011;29783;52.504;13.478;2024-03-22T12:08:50;23.00;;;16.00;;
44120;SDS011;29783;52.504;13.478;2024-03-22T12:11:15;21.50;;;15.15;;
44120;SDS011;29783;52.504;13.478;2024-03-22T12:13:41;22.65;;;15.50;;
44120;SDS011;29783;52.504;13.478;2024-03-22T12:16:07;22.63;;;13.75;;
44120;SDS011;29783;52.504;13.478;2024-03-22T12:18:33;26.23;;;17.08;;
44120;SDS011;29783;52.504;13.478;2024-03-22T12:20:59;17.65;;;11.10;;
44120;SDS011;29783;52.504;13.478;2024-03-22T12:23:25;17.70;;;12.07;;
44120;SDS011;29783;52.504;13.478;2024-03-22T12:25:51;19.17;;;12.25;;
44120;SDS011;29783;52.504;13.478;2024-03-22T12:28:17;28.60;;;18.75;;
44120;SDS011;29783;52.504;13.478;2024-03-22T12:30:43;29.75;;;18.95;;
44120;SDS011;29783;52.504;13.478;2024-03-22T12:33:09;26.50;;;19.63;;
44120;SDS011;29783;52.504;13.478;2024-03-22T12:35:39;26.17;;;19.08;;
44120;SDS011;29783;52.504;13.478;2024-03-22T12:38:05;30.48;;;18.80;;
44120;SDS011;29783;52.504;13.478;2024-03-22T12:40:32;28.65;;;21.30;;
44120;SDS011;29783;52.504;13.478;2024-03-22T12:42:58;33.30;;;18.85;;
44120;SDS011;29783;52.504;13.478;2024-03-22T12:45:24;35.58;;;22.17;;
44120;SDS011;29783;52.504;13.478;2024-03-22T12:47:50;28.75;;;19.67;;
44120;SDS011;29783;52.504;13.478;2024-03-22T12:50:16;38.10;;;22.08;;
44120;SDS011;29783;52.504;13.478;2024-03-22T12:52:42;36.45;;;21.73;;
44120;SDS011;29783;52.504;13.478;2024-03-22T12:55:09;32.78;;;20.42;;
44120;SDS011;29783;52.504;13.478;2024-03-22T12:57:35;32.05;;;21.73;;
44120;SDS011;29783;52.504;13.478;2024-03-22T13:00:00;33.00;;;22.75;;
44120;SDS011;29783;52.504;13.478;2024-03-22T13:02:28;54.58;;;25.73;;
44120;SDS011;29783;52.504;13.478;2024-03-22T13:04:53;40.50;;;26.25;;
44120;SDS011;29783;52.504;13.478;2024-03-22T13:07:19;37.03;;;24.70;;
44120;SDS011;29783;52.504;13.478;2024-03-22T13:09:45;30.88;;;21.88;;
44120;SDS011;29783;52.504;13.478;2024-03-22T13:12:10;40.63;;;23.48;;
44120;SDS011;29783;52.504;13.478;2024-03-22T13:14:36;39.22;;;23.85;;
44120;SDS011;29783;52.504;13.478;2024-03-22T13:17:02;35.50;;;23.98;;
44120;SDS011;29783;52.504;13.478;2024-03-22T13:19:28;35.05;;;16.50;;
44120;SDS011;29783;52.504;13.478;2024-03-22T13:21:53;22.02;;;10.55;;
44120;SDS011;29783;52.504;13.478;2024-03-22T13:24:19;24.00;;;13.57;;
44120;SDS011;29783;52.504;13.478;2024-03-22T13:26:44;26.60;;;16.77;;
44120;SDS011;29783;52.504;13.478;2024-03-22T13:29:10;18.33;;;12.95;;
44120;SDS011;29783;52.504;13.478;2024-03-22T13:31:38;30.23;;;17.95;;
44120;SDS011;29783;52.504;13.478;2024-03-22T13:34:04;25.65;;;17.10;;
44120;SDS011;29783;52.504;13.478;2024-03-22T13:36:30;21.35;;;14.20;;
44120;SDS011;29783;52.504;13.478;2024-03-22T13:38:57;24.98;;;16.52;;
44120;SDS011;29783;52.504;13.478;2024-03-22T13:41:23;26.85;;;16.30;;
44120;SDS011;29783;52.504;13.478;2024-03-22T13:43:49;25.77;;;16.15;;
44120;SDS011;29783;52.504;13.478;2024-03-22T13:46:15;23.77;;;15.93;;
44120;SDS011;29783;52.504;13.478;2024-03-22T13:48:42;22.63;;;13.95;;
44120;SDS011;29783;52.504;13.478;2024-03-22T13:51:08;20.58;;;13.68;;
44120;SDS011;29783;52.504;13.478;2024-03-22T13:53:34;19.77;;;12.50;;
44120;SDS011;29783;52.504;13.478;2024-03-22T13:56:00;17.08;;;11.82;;
44120;SDS011;29783;52.504;13.478;2024-03-22T13:58:26;20.23;;;12.63;;
44120;SDS011;29783;52.504;13.478;2024-03-22T14:00:52;19.75;;;13.45;;
44120;SDS011;29783;52.504;13.478;2024-03-22T14:03:18;22.70;;;13.50;;
44120;SDS011;29783;52.504;13.478;2024-03-22T14:05:44;26.10;;;15.68;;